createdAt,value
2022-09-04T00:02:49.278Z,98191.63
2022-09-04T00:05:24.621Z,98188.31
2022-09-04T00:08:01.389Z,98188.84
2022-09-04T00:11:03.562Z,98191.22
2022-09-04T00:13:38.569Z,98191.79
2022-09-04T00:16:17.246Z,98187.17
2022-09-04T00:18:49.383Z,98188.86
2022-09-04T00:21:46.168Z,98185.71
2022-09-04T00:24:17.871Z,98183.29
2022-09-04T00:27:04.924Z,98179.75
2022-09-04T00:29:41.733Z,98178.96
2022-09-04T00:32:27.802Z,98180.00
2022-09-04T00:35:04.738Z,98187.73
2022-09-04T00:37:38.369Z,98185.07
2022-09-04T00:40:14.066Z,98183.59
2022-09-04T00:43:07.209Z,98180.52
2022-09-04T00:46:14.274Z,98187.03
2022-09-04T00:49:04.036Z,98191.05
2022-09-04T00:51:59.476Z,98188.84
2022-09-04T00:54:46.039Z,98192.73
2022-09-04T00:57:40.740Z,98191.06
2022-09-04T01:00:13.195Z,98196.36
2022-09-04T01:02:59.549Z,98194.09
2022-09-04T01:05:45.645Z,98193.66
2022-09-04T01:09:01.472Z,98192.20
2022-09-04T01:11:45.732Z,98191.97
2022-09-04T01:14:25.569Z,98194.60
2022-09-04T01:17:02.211Z,98194.64
2022-09-04T01:19:51.817Z,98196.59
2022-09-04T01:22:33.824Z,98200.59
2022-09-04T01:25:48.624Z,98195.13
2022-09-04T01:28:42.696Z,98192.95
2022-09-04T01:31:32.295Z,98192.31
2022-09-04T01:34:14.449Z,98191.20
2022-09-04T01:37:01.008Z,98188.79
2022-09-04T01:39:32.544Z,98189.30
2022-09-04T01:42:19.342Z,98196.90
2022-09-04T01:44:48.609Z,98201.17
2022-09-04T01:47:28.610Z,98207.23
2022-09-04T01:50:06.352Z,98210.84
2022-09-04T01:52:48.923Z,98213.10
2022-09-04T01:55:45.079Z,98213.40
2022-09-04T01:58:40.770Z,98215.46
2022-09-04T02:01:26.278Z,98211.50
2022-09-04T02:04:08.337Z,98210.21
2022-09-04T02:06:51.923Z,98215.30
2022-09-04T02:09:45.185Z,98217.90
2022-09-04T02:12:42.745Z,98213.54
2022-09-04T02:15:39.493Z,98207.27
2022-09-04T02:18:21.074Z,98203.01
2022-09-04T02:21:33.652Z,98202.39
2022-09-04T02:24:30.922Z,98196.51
2022-09-04T02:27:11.364Z,98191.33
2022-09-04T02:30:01.944Z,98191.73
2022-09-04T02:32:57.984Z,98197.05
2022-09-04T02:35:35.254Z,98200.99
2022-09-04T02:38:10.796Z,98207.19
2022-09-04T02:40:51.469Z,98205.83
2022-09-04T02:43:44.893Z,98205.64
2022-09-04T02:46:18.327Z,98203.16
2022-09-04T02:49:22.505Z,98199.54
2022-09-04T02:52:17.565Z,98194.02
2022-09-04T02:55:03.875Z,98195.96
2022-09-04T02:57:59.367Z,98192.77
2022-09-04T03:00:54.529Z,98192.91
2022-09-04T03:03:38.091Z,98189.66
2022-09-04T03:06:24.543Z,98187.31
2022-09-04T03:09:06.796Z,98181.61
2022-09-04T03:11:41.185Z,98181.06
2022-09-04T03:14:24.824Z,98176.54
2022-09-04T03:17:01.809Z,98177.53
2022-09-04T03:19:54.700Z,98178.17
2022-09-04T03:22:22.749Z,98171.19
2022-09-04T03:25:25.037Z,98175.60
2022-09-04T03:27:53.002Z,98174.96
2022-09-04T03:30:21.202Z,98178.52
2022-09-04T03:33:07.637Z,98181.36
2022-09-04T03:36:15.542Z,98184.55
2022-09-04T03:39:02.762Z,98183.16
2022-09-04T03:41:46.142Z,98187.52
2022-09-04T03:44:35.202Z,98186.08
2022-09-04T03:47:28.102Z,98191.71
2022-09-04T03:50:18.068Z,98194.12
2022-09-04T03:52:57.118Z,98192.48
2022-09-04T03:55:37.380Z,98196.23
2022-09-04T03:58:37.182Z,98198.13
2022-09-04T04:01:14.176Z,98199.09
2022-09-04T04:04:18.433Z,98194.98
2022-09-04T04:06:57.737Z,98193.66
2022-09-04T04:09:46.585Z,98194.50
2022-09-04T04:12:39.432Z,98194.50
2022-09-04T04:15:30.243Z,98195.17
2022-09-04T04:18:28.067Z,98200.26
2022-09-04T04:21:20.181Z,98203.06
2022-09-04T04:24:07.153Z,98201.14
2022-09-04T04:26:54.569Z,98206.01
2022-09-04T04:29:55.908Z,98211.35
2022-09-04T04:32:41.946Z,98223.95
2022-09-04T04:35:45.475Z,98221.51
2022-09-04T04:38:28.450Z,98217.55
2022-09-04T04:42:02.885Z,98220.67
2022-09-04T04:45:18.861Z,98224.14
2022-09-04T04:48:08.244Z,98226.55
2022-09-04T04:50:40.493Z,98227.77
2022-09-04T04:53:20.468Z,98228.92
2022-09-04T04:55:58.182Z,98230.04
2022-09-04T04:58:48.393Z,98235.94
2022-09-04T05:01:34.378Z,98239.60
2022-09-04T05:04:11.741Z,98241.77
2022-09-04T05:06:45.543Z,98249.27
2022-09-04T05:09:34.938Z,98256.21
2022-09-04T05:12:40.035Z,98259.12
2022-09-04T05:15:18.602Z,98268.02
2022-09-04T05:18:27.903Z,98274.58
2022-09-04T05:21:25.525Z,98276.65
2022-09-04T05:24:02.573Z,98268.81
2022-09-04T05:26:31.401Z,98277.95
2022-09-04T05:29:05.182Z,98280.58
2022-09-04T05:31:37.888Z,98284.22
2022-09-04T05:34:16.913Z,98283.84
2022-09-04T05:37:06.714Z,98289.32
2022-09-04T05:39:46.706Z,98294.33
2022-09-04T05:42:33.935Z,98296.39
2022-09-04T05:45:10.586Z,98297.75
2022-09-04T05:48:21.747Z,98296.03
2022-09-04T05:50:52.377Z,98297.41
2022-09-04T05:53:41.473Z,98301.88
2022-09-04T05:56:21.537Z,98305.99
2022-09-04T05:59:04.700Z,98303.90
2022-09-04T06:01:47.556Z,98304.17
2022-09-04T06:04:40.391Z,98300.40
2022-09-04T06:07:27.881Z,98305.55
2022-09-04T06:09:55.752Z,98309.11
2022-09-04T06:12:46.667Z,98312.48
2022-09-04T06:15:36.499Z,98313.91
2022-09-04T06:18:29.528Z,98314.36
2022-09-04T06:21:25.521Z,98311.10
2022-09-04T06:24:31.564Z,98313.94
2022-09-04T06:27:29.509Z,98314.23
2022-09-04T06:30:12.443Z,98314.53
2022-09-04T06:32:55.280Z,98315.73
2022-09-04T06:35:51.223Z,98320.33
2022-09-04T06:38:31.484Z,98320.46
2022-09-04T06:41:33.391Z,98321.39
2022-09-04T06:44:23.018Z,98319.65
2022-09-04T06:47:00.881Z,98322.34
2022-09-04T06:50:06.199Z,98324.34
2022-09-04T06:53:16.341Z,98327.99
2022-09-04T06:56:15.650Z,98331.23
2022-09-04T06:58:46.207Z,98329.91
2022-09-04T07:01:26.468Z,98328.37
2022-09-04T07:04:29.531Z,98331.31
2022-09-04T07:07:25.555Z,98333.40
2022-09-04T07:10:01.724Z,98338.17
2022-09-04T07:12:48.485Z,98337.64
2022-09-04T07:15:36.004Z,98337.92
2022-09-04T07:18:13.131Z,98338.27
2022-09-04T07:21:00.318Z,98335.70
2022-09-04T07:23:45.204Z,98342.30
2022-09-04T07:26:28.442Z,98345.30
2022-09-04T07:29:35.717Z,98348.56
2022-09-04T07:32:23.679Z,98346.69
2022-09-04T07:35:02.191Z,98345.74
2022-09-04T07:37:40.909Z,98345.17
2022-09-04T07:40:10.163Z,98349.66
2022-09-04T07:43:09.631Z,98353.73
2022-09-04T07:45:51.748Z,98366.66
2022-09-04T07:48:22.467Z,98369.41
2022-09-04T07:51:10.865Z,98373.83
2022-09-04T07:54:22.657Z,98380.73
2022-09-04T07:57:04.238Z,98388.48
2022-09-04T08:00:00.048Z,98390.65
2022-09-04T08:02:37.936Z,98398.82
2022-09-04T08:05:33.781Z,98400.90
2022-09-04T08:08:48.163Z,98402.61
2022-09-04T08:11:40.851Z,98405.78
2022-09-04T08:14:23.905Z,98401.02
2022-09-04T08:17:21.075Z,98407.69
2022-09-04T08:20:24.734Z,98410.77
2022-09-04T08:23:35.023Z,98407.15
2022-09-04T08:26:02.912Z,98416.32
2022-09-04T08:29:04.914Z,98415.72
2022-09-04T08:31:42.883Z,98422.04
2022-09-04T08:34:40.536Z,98425.14
2022-09-04T08:37:29.475Z,98430.63
2022-09-04T08:40:09.385Z,98433.05
2022-09-04T08:43:16.083Z,98434.25
2022-09-04T08:45:59.424Z,98439.08
2022-09-04T08:49:01.398Z,98437.39
2022-09-04T08:51:48.479Z,98439.69
2022-09-04T08:54:48.758Z,98446.18
2022-09-04T08:57:28.771Z,98455.02
2022-09-04T09:00:11.198Z,98459.21
2022-09-04T09:02:58.049Z,98462.90
2022-09-04T09:05:47.728Z,98469.02
2022-09-04T09:08:53.208Z,98471.54
2022-09-04T09:11:36.517Z,98480.51
2022-09-04T09:14:26.096Z,98486.45
2022-09-04T09:17:12.984Z,98490.02
2022-09-04T09:19:59.522Z,98495.58
2022-09-04T09:22:40.031Z,98495.54
2022-09-04T09:25:31.759Z,98493.02
2022-09-04T09:28:17.841Z,98491.04
2022-09-04T09:31:27.825Z,98492.30
2022-09-04T09:34:17.437Z,98491.73
2022-09-04T09:37:02.654Z,98492.67
2022-09-04T09:40:01.848Z,98491.39
2022-09-04T09:43:09.817Z,98484.35
2022-09-04T09:45:50.038Z,98482.51
2022-09-04T09:48:45.449Z,98479.55
2022-09-04T09:51:49.387Z,98477.42
2022-09-04T09:54:48.281Z,98471.14
2022-09-04T09:57:33.308Z,98469.10
2022-09-04T10:00:14.799Z,98472.23
2022-09-04T10:03:20.367Z,98477.10
2022-09-04T10:06:04.514Z,98470.17
2022-09-04T10:09:00.320Z,98472.86
2022-09-04T10:12:02.459Z,98465.76
2022-09-04T10:14:52.406Z,98461.29
2022-09-04T10:17:58.130Z,98460.59
2022-09-04T10:20:53.616Z,98463.41
2022-09-04T10:23:41.836Z,98464.63
2022-09-04T10:26:40.124Z,98471.89
2022-09-04T10:29:34.376Z,98475.44
2022-09-04T10:32:11.245Z,98479.48
2022-09-04T10:34:46.530Z,98481.41
2022-09-04T10:37:43.844Z,98480.20
2022-09-04T10:40:39.703Z,98480.23
2022-09-04T10:43:30.990Z,98482.45
2022-09-04T10:46:10.891Z,98485.33
2022-09-04T10:49:29.415Z,98487.89
2022-09-04T10:52:09.356Z,98491.80
2022-09-04T10:55:15.007Z,98487.73
2022-09-04T10:57:42.915Z,98493.20
2022-09-04T11:00:19.757Z,98497.48
2022-09-04T11:03:04.222Z,98495.23
2022-09-04T11:06:02.590Z,98497.44
2022-09-04T11:08:42.947Z,98498.55
2022-09-04T11:11:22.764Z,98508.65
2022-09-04T11:14:29.068Z,98504.83
2022-09-04T11:17:28.446Z,98504.48
2022-09-04T11:20:12.868Z,98507.21
2022-09-04T11:23:20.624Z,98508.27
2022-09-04T11:26:09.837Z,98511.27
2022-09-04T11:29:02.868Z,98514.12
2022-09-04T11:32:06.779Z,98515.45
2022-09-04T11:34:59.652Z,98511.89
2022-09-04T11:37:57.658Z,98509.71
2022-09-04T11:40:44.672Z,98508.31
2022-09-04T11:43:46.875Z,98507.72
2022-09-04T11:46:30.280Z,98505.98
2022-09-04T11:49:08.127Z,98504.89
2022-09-04T11:51:54.849Z,98508.22
2022-09-04T11:54:28.888Z,98510.87
2022-09-04T11:57:15.636Z,98510.96
2022-09-04T12:00:12.625Z,98506.23
2022-09-04T12:03:02.158Z,98512.30
2022-09-04T12:05:45.971Z,98508.03
2022-09-04T12:08:19.649Z,98514.84
2022-09-04T12:11:21.654Z,98513.09
2022-09-04T12:14:02.204Z,98514.91
2022-09-04T12:16:57.389Z,98513.35
2022-09-04T12:19:50.582Z,98513.08
2022-09-04T12:22:43.599Z,98512.98
2022-09-04T12:25:32.695Z,98510.96
2022-09-04T12:28:16.114Z,98515.49
2022-09-04T12:30:44.512Z,98515.20
2022-09-04T12:33:30.851Z,98515.45
2022-09-04T12:36:23.789Z,98510.48
2022-09-04T12:39:06.067Z,98510.21
2022-09-04T12:41:36.623Z,98504.14
2022-09-04T12:44:16.446Z,98503.60
2022-09-04T12:46:57.957Z,98499.73
2022-09-04T12:50:04.162Z,98502.58
2022-09-04T12:53:19.394Z,98500.36
2022-09-04T12:56:07.147Z,98504.45
2022-09-04T12:59:03.133Z,98501.17
2022-09-04T13:02:05.153Z,98501.33
2022-09-04T13:05:10.380Z,98501.25
2022-09-04T13:07:53.671Z,98501.01
2022-09-04T13:11:03.205Z,98499.23
2022-09-04T13:14:09.980Z,98497.61
2022-09-04T13:16:38.749Z,98497.25
2022-09-04T13:19:28.787Z,98498.23
2022-09-04T13:22:28.308Z,98505.33
2022-09-04T13:25:27.589Z,98504.14
2022-09-04T13:28:03.210Z,98507.82
2022-09-04T13:30:34.531Z,98502.65
2022-09-04T13:33:20.855Z,98505.95
2022-09-04T13:36:16.677Z,98508.42
2022-09-04T13:39:18.850Z,98507.04
2022-09-04T13:42:23.855Z,98508.92
2022-09-04T13:45:05.837Z,98511.45
2022-09-04T13:47:38.881Z,98511.73
2022-09-04T13:50:29.383Z,98515.19
2022-09-04T13:53:03.018Z,98510.35
2022-09-04T13:55:39.690Z,98507.48
2022-09-04T13:58:17.201Z,98510.23
2022-09-04T14:00:47.374Z,98508.67
2022-09-04T14:03:46.368Z,98505.55
2022-09-04T14:06:18.408Z,98508.81
2022-09-04T14:09:04.322Z,98508.02
2022-09-04T14:11:45.365Z,98510.30
2022-09-04T14:14:33.624Z,98511.90
2022-09-04T14:17:01.680Z,98507.83
2022-09-04T14:19:58.842Z,98511.14
2022-09-04T14:22:58.172Z,98519.16
2022-09-04T14:25:56.552Z,98522.13
2022-09-04T14:28:54.414Z,98520.73
2022-09-04T14:31:46.742Z,98522.80
2022-09-04T14:34:16.275Z,98519.09
2022-09-04T14:37:08.282Z,98517.40
2022-09-04T14:39:55.516Z,98520.30
2022-09-04T14:42:44.242Z,98521.91
2022-09-04T14:45:23.481Z,98521.09
2022-09-04T14:47:57.784Z,98519.61
2022-09-04T14:50:29.570Z,98513.50
2022-09-04T14:53:08.693Z,98517.84
2022-09-04T14:55:44.869Z,98523.69
2022-09-04T14:58:41.593Z,98527.88
2022-09-04T15:01:25.415Z,98527.13
2022-09-04T15:04:13.648Z,98526.41
2022-09-04T15:07:12.023Z,98534.04
2022-09-04T15:09:48.683Z,98534.49
2022-09-04T15:12:30.092Z,98535.27
2022-09-04T15:15:06.306Z,98536.56
2022-09-04T15:17:39.471Z,98534.54
2022-09-04T15:20:18.084Z,98531.16
2022-09-04T15:22:52.037Z,98533.79
2022-09-04T15:25:48.006Z,98528.45
2022-09-04T15:28:36.949Z,98526.09
2022-09-04T15:31:40.103Z,98527.52
2022-09-04T15:34:18.319Z,98517.58
2022-09-04T15:36:47.125Z,98524.24
2022-09-04T15:39:44.046Z,98522.79
2022-09-04T15:42:13.669Z,98527.00
2022-09-04T15:44:48.114Z,98533.15
2022-09-04T15:47:38.897Z,98542.36
2022-09-04T15:50:19.640Z,98544.33
2022-09-04T15:52:58.962Z,98543.74
2022-09-04T15:55:34.960Z,98542.73
2022-09-04T15:58:11.940Z,98541.45
2022-09-04T16:01:04.336Z,98540.30
2022-09-04T16:04:28.388Z,98537.63
2022-09-04T16:07:35.600Z,98536.31
2022-09-04T16:10:17.460Z,98534.52
2022-09-04T16:12:57.757Z,98533.25
2022-09-04T16:15:32.050Z,98528.28
2022-09-04T16:18:16.588Z,98526.83
2022-09-04T16:21:00.215Z,98528.79
2022-09-04T16:23:35.536Z,98533.92
2022-09-04T16:26:18.321Z,98532.35
2022-09-04T16:31:34.449Z,98537.84
2022-09-04T16:34:11.411Z,98536.48
2022-09-04T16:36:51.180Z,98535.20
2022-09-04T16:39:27.742Z,98535.79
2022-09-04T16:42:04.697Z,98540.16
2022-09-04T16:45:03.640Z,98538.70
2022-09-04T16:50:30.790Z,98545.77
2022-09-04T16:53:33.812Z,98547.38
2022-09-04T16:56:09.168Z,98544.41
2022-09-04T16:59:02.659Z,98544.48
2022-09-04T17:01:46.760Z,98552.27
2022-09-04T17:04:30.532Z,98554.55
2022-09-04T17:07:09.115Z,98560.38
2022-09-04T17:09:38.816Z,98560.13
2022-09-04T17:12:31.730Z,98567.07
2022-09-04T17:15:05.524Z,98570.40
2022-09-04T17:17:37.068Z,98574.08
2022-09-04T17:22:54.143Z,98570.30
2022-09-04T17:29:00.664Z,98570.66
2022-09-04T17:29:09.737Z,98575.58
2022-09-04T17:29:47.408Z,98577.61
2022-09-04T17:36:23.633Z,98575.13
2022-09-04T17:40:34.985Z,98581.81
2022-09-04T17:40:46.674Z,98581.36
2022-09-04T17:41:55.952Z,98581.84
2022-09-04T17:44:47.121Z,98585.11
2022-09-04T17:47:17.775Z,98587.73
2022-09-04T17:49:51.521Z,98592.95
2022-09-04T17:52:28.484Z,98594.45
2022-09-04T17:55:08.916Z,98600.36
2022-09-04T17:57:43.909Z,98605.66
2022-09-04T18:00:20.744Z,98609.39
2022-09-04T18:03:25.758Z,98613.02
2022-09-04T18:08:45.005Z,98615.48
2022-09-04T18:12:00.322Z,98619.96
2022-09-04T18:14:45.742Z,98623.05
2022-09-04T18:17:56.425Z,98623.52
2022-09-04T18:20:40.952Z,98629.05
2022-09-04T18:23:55.412Z,98629.06
2022-09-04T18:26:35.694Z,98630.10
2022-09-04T18:31:48.230Z,98631.89
2022-09-04T18:37:25.133Z,98639.86
2022-09-04T18:38:01.926Z,98644.09
2022-09-04T18:42:37.031Z,98640.11
2022-09-04T18:50:25.371Z,98639.69
2022-09-04T18:50:32.527Z,98641.48
2022-09-04T18:50:44.949Z,98650.89
2022-09-04T18:53:14.070Z,98656.95
2022-09-04T18:55:54.128Z,98655.29
2022-09-04T18:58:22.289Z,98656.59
2022-09-04T19:00:59.791Z,98658.39
2022-09-04T19:03:46.758Z,98647.94
2022-09-04T19:06:30.756Z,98648.69
2022-09-04T19:09:13.694Z,98650.92
2022-09-04T19:12:13.572Z,98656.95
2022-09-04T19:14:46.559Z,98663.78
2022-09-04T19:17:21.449Z,98665.88
2022-09-04T19:22:54.572Z,98667.36
2022-09-04T19:25:30.805Z,98670.98
2022-09-04T19:28:17.271Z,98671.89
2022-09-04T19:31:05.278Z,98675.02
2022-09-04T19:33:57.895Z,98668.83
2022-09-04T19:36:45.697Z,98672.25
2022-09-04T19:45:57.428Z,98672.45
2022-09-04T19:45:59.229Z,98671.23
2022-09-04T19:46:29.345Z,98670.88
2022-09-04T19:53:19.181Z,98666.95
2022-09-04T19:53:32.455Z,98665.14
2022-09-04T19:55:29.776Z,98663.73
2022-09-04T19:58:15.491Z,98668.88
2022-09-04T20:00:59.818Z,98670.83
2022-09-04T20:03:36.956Z,98667.34
2022-09-04T20:06:24.839Z,98664.28
2022-09-04T20:09:15.264Z,98662.30
2022-09-04T20:11:49.864Z,98663.83
2022-09-04T20:14:28.042Z,98666.52
2022-09-04T20:17:01.434Z,98672.42
2022-09-04T20:19:56.875Z,98671.90
2022-09-04T20:22:33.319Z,98673.98
2022-09-04T20:25:40.604Z,98677.19
2022-09-04T20:28:26.681Z,98675.77
2022-09-04T20:31:35.538Z,98675.19
2022-09-04T20:34:11.266Z,98676.70
2022-09-04T20:36:49.183Z,98674.96
2022-09-04T20:39:20.034Z,98678.64
2022-09-04T20:42:06.585Z,98680.96
2022-09-04T20:45:08.871Z,98683.81
2022-09-04T20:52:43.657Z,98682.76
2022-09-04T20:53:00.200Z,98685.27
2022-09-04T20:53:31.526Z,98683.52
2022-09-04T20:57:15.657Z,98680.59
2022-09-04T21:03:13.905Z,98688.79
2022-09-04T21:03:18.286Z,98685.41
2022-09-04T21:05:54.277Z,98689.45
2022-09-04T21:08:40.135Z,98688.65
2022-09-04T21:11:40.900Z,98687.23
2022-09-04T21:14:06.972Z,98687.50
2022-09-04T21:16:59.535Z,98689.73
2022-09-04T21:20:04.576Z,98692.00
2022-09-04T21:22:41.465Z,98693.02
2022-09-04T21:25:37.003Z,98697.01
2022-09-04T21:31:11.212Z,98699.10
2022-09-04T21:34:02.018Z,98703.11
2022-09-04T21:36:47.533Z,98698.55
2022-09-04T21:39:28.103Z,98703.46
2022-09-04T21:42:17.051Z,98707.39
2022-09-04T21:45:22.659Z,98710.55
2022-09-04T21:48:18.034Z,98710.02
2022-09-04T21:51:06.339Z,98711.73
2022-09-04T21:54:01.952Z,98710.65
2022-09-04T22:02:26.845Z,98716.71
2022-09-04T22:02:38.112Z,98717.45
2022-09-04T22:03:03.805Z,98717.94
2022-09-04T22:06:03.753Z,98715.89
2022-09-04T22:13:30.305Z,98717.04
2022-09-04T22:13:40.554Z,98711.16
2022-09-04T22:15:05.856Z,98717.66
2022-09-04T22:18:11.563Z,98713.77
2022-09-04T22:20:45.613Z,98716.66
2022-09-04T22:23:50.610Z,98718.52
2022-09-04T22:26:24.080Z,98717.74
2022-09-04T22:29:40.312Z,98723.26
2022-09-04T22:32:23.391Z,98717.95
2022-09-04T22:35:15.620Z,98719.95
2022-09-04T22:37:55.773Z,98719.70
2022-09-04T22:40:57.938Z,98722.79
2022-09-04T22:43:27.178Z,98722.64
2022-09-04T22:46:36.674Z,98722.61
2022-09-04T22:49:13.240Z,98722.47
2022-09-04T22:52:10.419Z,98726.20
2022-09-04T22:55:29.301Z,98725.10
2022-09-04T22:58:17.026Z,98727.02
2022-09-04T23:01:16.183Z,98727.13
2022-09-04T23:03:44.078Z,98727.23
2022-09-04T23:09:35.548Z,98733.06
2022-09-04T23:13:50.232Z,98734.02
2022-09-04T23:14:00.586Z,98737.11
2022-09-04T23:22:40.958Z,98739.20
2022-09-04T23:26:49.219Z,98739.64
2022-09-04T23:26:57.526Z,98738.80
2022-09-04T23:27:58.217Z,98734.41
2022-09-04T23:30:32.619Z,98736.14
2022-09-04T23:33:40.992Z,98733.36
2022-09-04T23:36:36.800Z,98729.41
2022-09-04T23:40:00.578Z,98730.89
2022-09-04T23:43:08.053Z,98734.39
2022-09-04T23:46:01.283Z,98737.20
2022-09-04T23:49:13.832Z,98742.31
2022-09-04T23:52:14.227Z,98735.98
2022-09-04T23:55:37.263Z,98730.71
2022-09-04T23:59:11.479Z,98732.16
